Time;durP1;ratioP1;P1;durP2;ratioP2;P2;SDS_P1;SDS_P2;PMS_P1;PMS_P2;Temp;Humidity;BMP_temperature;BMP_pressure;BME280_temperature;BME280_humidity;BME280_pressure;Samples;Min_cycle;Max_cycle;Signal;HPM_P1;HPM_P2
2023/04/04 00:00:50;;;;;;;;;;;;;;;1.53;57.24;92926.06;2058968;70;20051;-81
2023/04/04 00:03:16;;;;;;;;;;;;;;;1.49;56.66;92920.88;2056798;70;20205;-80
2023/04/04 00:05:42;;;;;;;;;;;;;;;1.52;57.14;92910.72;2056414;70;20051;-83
2023/04/04 00:08:07;;;;;;;;;;;;;;;1.52;56.52;92913.50;2054389;69;20149;-78
2023/04/04 00:10:34;;;;;;;;;;;;;;;1.60;56.35;92916.28;2053794;70;20047;-80
2023/04/04 00:13:00;;;;;;;;;;;;;;;1.49;56.36;92914.56;2053564;70;20047;-81
2023/04/04 00:15:26;;;;;;;;;;;;;;;1.44;58.10;92915.47;2053246;69;20050;-78
2023/04/04 00:17:51;;;;;;;;;;;;;;;1.49;58.10;92912.53;2053469;70;20061;-78
2023/04/04 00:20:17;;;;;;;;;;;;;;;1.47;57.58;92901.25;2053186;70;20106;-76
2023/04/04 00:22:50;;;;;;;;;;;;;;;1.55;57.50;92908.88;2053332;70;20058;-78
2023/04/04 00:25:16;;;;;;;;;;;;;;;1.48;57.72;92896.44;2053071;69;20173;-78
2023/04/04 00:27:42;;;;;;;;;;;;;;;1.58;57.68;92908.53;2052860;70;20154;-75
2023/04/04 00:30:08;;;;;;;;;;;;;;;1.62;57.80;92899.84;2052988;70;20063;-79
2023/04/04 00:32:33;;;;;;;;;;;;;;;1.62;57.99;92905.41;2065783;69;20138;-80
2023/04/04 00:34:59;;;;;;;;;;;;;;;1.69;57.38;92899.13;2065873;69;20058;-79
2023/04/04 00:37:26;;;;;;;;;;;;;;;1.54;58.41;92899.81;2053144;69;20091;-81
2023/04/04 00:39:52;;;;;;;;;;;;;;;1.51;58.14;92896.09;2052797;69;20046;-81
2023/04/04 00:42:18;;;;;;;;;;;;;;;1.57;58.09;92895.94;2052752;70;20050;-81
2023/04/04 00:44:47;;;;;;;;;;;;;;;1.52;57.94;92888.53;2062534;69;20142;-81
2023/04/04 00:47:14;;;;;;;;;;;;;;;1.55;57.23;92884.63;2052628;69;20053;-77
2023/04/04 00:49:40;;;;;;;;;;;;;;;1.58;57.37;92885.59;2065448;69;20177;-80
2023/04/04 00:52:06;;;;;;;;;;;;;;;1.56;57.81;92882.59;2052872;69;20453;-78
2023/04/04 00:54:34;;;;;;;;;;;;;;;1.57;56.96;92884.84;2052667;69;20054;-76
2023/04/04 00:57:00;;;;;;;;;;;;;;;1.55;57.72;92875.56;2065611;69;20055;-81
2023/04/04 00:59:26;;;;;;;;;;;;;;;1.57;57.37;92876.53;2052969;70;20142;-77
2023/04/04 01:01:59;;;;;;;;;;;;;;;1.45;58.23;92870.53;2052884;70;20055;-81
2023/04/04 01:04:28;;;;;;;;;;;;;;;1.51;58.06;92876.69;2065685;69;20055;-81
2023/04/04 01:06:55;;;;;;;;;;;;;;;1.51;58.32;92882.22;2065621;69;20086;-80
2023/04/04 01:09:21;;;;;;;;;;;;;;;1.50;58.67;92868.88;2043808;69;20051;-81
2023/04/04 01:11:48;;;;;;;;;;;;;;;1.59;58.04;92868.38;2065946;69;20071;-79
2023/04/04 01:14:25;;;;;;;;;;;;;;;1.64;58.54;92875.78;2052906;69;20051;-79
2023/04/04 01:16:51;;;;;;;;;;;;;;;1.61;58.63;92867.84;2052523;69;20057;-79
2023/04/04 01:19:52;;;;;;;;;;;;;;;1.64;58.02;92873.03;2065550;69;20055;-81
2023/04/04 01:22:19;;;;;;;;;;;;;;;1.62;57.76;92874.88;2060074;69;20042;-81
2023/04/04 01:25:07;;;;;;;;;;;;;;;1.68;58.14;92867.84;2061232;69;20482;-82
2023/04/04 01:27:35;;;;;;;;;;;;;;;1.71;57.46;92858.44;2058303;69;20092;-81
2023/04/04 01:30:17;;;;;;;;;;;;;;;1.64;58.01;92863.94;2061276;69;20149;-81
2023/04/04 01:32:49;;;;;;;;;;;;;;;1.63;58.04;92866.00;2061225;69;20179;-81
2023/04/04 01:35:28;;;;;;;;;;;;;;;1.60;57.73;92855.25;2061680;69;20086;-80
2023/04/04 01:38:02;;;;;;;;;;;;;;;1.68;57.09;92867.13;2061235;69;20507;-81
2023/04/04 01:40:41;;;;;;;;;;;;;;;1.62;56.89;92864.50;2060976;69;20046;-80
2023/04/04 01:43:10;;;;;;;;;;;;;;;1.66;58.18;92870.44;2061516;69;20100;-80
2023/04/04 01:45:41;;;;;;;;;;;;;;;1.54;58.48;92874.81;2061477;69;20053;-81
2023/04/04 01:48:15;;;;;;;;;;;;;;;1.56;58.24;92872.25;2058806;69;20457;-80
2023/04/04 01:50:42;;;;;;;;;;;;;;;1.45;58.78;92875.34;2059264;69;20108;-78
2023/04/04 01:53:10;;;;;;;;;;;;;;;1.11;57.88;92864.44;2060182;69;20078;-81
2023/04/04 01:55:36;;;;;;;;;;;;;;;1.37;56.38;92860.69;2061844;69;20086;-75
2023/04/04 01:58:11;;;;;;;;;;;;;;;1.48;56.44;92860.38;2063665;69;20594;-79
2023/04/04 02:00:37;;;;;;;;;;;;;;;1.48;56.67;92854.84;2059327;69;20180;-79
2023/04/04 02:03:02;;;;;;;;;;;;;;;1.56;56.07;92863.94;2063887;69;20138;-79
2023/04/04 02:05:28;;;;;;;;;;;;;;;1.42;55.80;92865.31;2049401;69;20058;-79
2023/04/04 02:07:53;;;;;;;;;;;;;;;1.29;56.80;92862.69;2052876;70;20145;-80
2023/04/04 02:10:30;;;;;;;;;;;;;;;1.36;56.23;92865.50;2063194;69;20070;-80
2023/04/04 02:12:56;;;;;;;;;;;;;;;1.13;56.64;92862.59;2065648;69;20415;-81
2023/04/04 02:15:23;;;;;;;;;;;;;;;1.16;57.69;92863.53;2065417;69;20062;-83
2023/04/04 02:17:48;;;;;;;;;;;;;;;1.15;56.62;92867.63;2052594;70;20051;-80
2023/04/04 02:20:15;;;;;;;;;;;;;;;1.22;56.94;92870.41;2065612;69;20055;-80
2023/04/04 02:22:41;;;;;;;;;;;;;;;1.19;57.69;92867.97;2052277;69;20082;-80
2023/04/04 02:25:09;;;;;;;;;;;;;;;1.01;57.73;92864.19;2052512;70;20047;-80
2023/04/04 02:27:35;;;;;;;;;;;;;;;1.22;56.35;92870.41;2052500;70;20054;-79
2023/04/04 02:30:00;;;;;;;;;;;;;;;1.17;56.74;92870.56;2052498;70;20145;-80
2023/04/04 02:32:26;;;;;;;;;;;;;;;1.13;56.60;92862.59;2052083;69;20154;-78
2023/04/04 02:34:51;;;;;;;;;;;;;;;0.57;56.98;92869.59;2062599;69;20142;-79
2023/04/04 02:37:18;;;;;;;;;;;;;;;0.76;57.40;92878.44;2065337;69;20497;-77
2023/04/04 02:39:44;;;;;;;;;;;;;;;0.92;56.61;92876.53;2052787;69;20150;-78
2023/04/04 02:42:10;;;;;;;;;;;;;;;0.87;57.40;92869.09;2065412;69;20153;-77
2023/04/04 02:44:37;;;;;;;;;;;;;;;0.98;56.33;92866.03;2052470;69;20054;-80
2023/04/04 02:47:04;;;;;;;;;;;;;;;0.83;56.29;92867.97;2065251;69;20498;-79
2023/04/04 02:49:31;;;;;;;;;;;;;;;0.87;56.43;92857.25;2052596;70;20047;-81
2023/04/04 02:51:58;;;;;;;;;;;;;;;0.68;56.71;92857.50;2065309;69;20082;-82
2023/04/04 02:54:28;;;;;;;;;;;;;;;0.74;56.80;92861.63;2064975;69;20434;-79
2023/04/04 02:56:54;;;;;;;;;;;;;;;0.90;56.52;92854.13;2065046;69;20498;-78
2023/04/04 02:59:20;;;;;;;;;;;;;;;0.88;56.55;92861.53;2065212;69;20108;-81
2023/04/04 03:01:49;;;;;;;;;;;;;;;0.87;56.63;92860.03;2065238;69;20055;-79
2023/04/04 03:04:17;;;;;;;;;;;;;;;0.81;56.96;92862.94;2062494;69;20054;-79
2023/04/04 03:06:48;;;;;;;;;;;;;;;0.80;56.90;92864.25;2052442;69;20455;-79
2023/04/04 03:09:14;;;;;;;;;;;;;;;0.70;57.18;92861.22;2065396;69;20487;-80
2023/04/04 03:11:40;;;;;;;;;;;;;;;0.65;57.73;92869.69;2052369;69;20060;-79
2023/04/04 03:14:06;;;;;;;;;;;;;;;0.50;57.53;92862.72;2045941;70;20043;-79
2023/04/04 03:16:39;;;;;;;;;;;;;;;0.64;56.87;92866.16;2065068;69;20047;-81
2023/04/04 03:19:06;;;;;;;;;;;;;;;0.77;55.98;92865.31;2052137;69;20059;-77
2023/04/04 03:21:31;;;;;;;;;;;;;;;0.68;56.49;92858.22;2062442;69;20047;-78
2023/04/04 03:23:57;;;;;;;;;;;;;;;0.71;56.08;92854.38;2065278;69;20070;-80
2023/04/04 03:26:27;;;;;;;;;;;;;;;0.66;56.03;92863.59;2065346;69;20518;-78
2023/04/04 03:28:53;;;;;;;;;;;;;;;0.66;56.43;92863.59;2062694;69;20057;-79
2023/04/04 03:31:21;;;;;;;;;;;;;;;0.55;57.25;92852.03;2065264;69;20429;-76
2023/04/04 03:33:46;;;;;;;;;;;;;;;0.62;57.03;92860.41;2052412;70;20071;-79
2023/04/04 03:36:12;;;;;;;;;;;;;;;0.57;56.54;92858.53;2052551;70;20054;-80
2023/04/04 03:38:38;;;;;;;;;;;;;;;0.65;56.66;92859.34;2065062;69;20062;-80
2023/04/04 03:41:04;;;;;;;;;;;;;;;0.66;56.98;92862.84;2052351;70;20057;-79
2023/04/04 03:43:31;;;;;;;;;;;;;;;0.59;57.37;92872.56;2065669;69;20090;-80
2023/04/04 03:46:04;;;;;;;;;;;;;;;0.45;56.74;92871.16;2065361;69;20143;-78
2023/04/04 03:48:30;;;;;;;;;;;;;;;0.54;56.38;92864.41;2052461;69;20058;-81
2023/04/04 03:50:58;;;;;;;;;;;;;;;0.61;55.98;92864.47;2053399;69;20137;-79
2023/04/04 03:53:25;;;;;;;;;;;;;;;0.61;55.91;92867.25;2066965;69;20047;-80
2023/04/04 03:55:50;;;;;;;;;;;;;;;0.58;56.39;92870.34;2053183;70;20069;-79
2023/04/04 03:58:17;;;;;;;;;;;;;;;0.69;56.46;92872.84;2052807;69;20157;-80
2023/04/04 04:00:44;;;;;;;;;;;;;;;0.74;56.26;92877.50;2052905;69;20162;-80
2023/04/04 04:03:09;;;;;;;;;;;;;;;0.79;56.67;92875.88;2053687;69;20129;-80
2023/04/04 04:05:35;;;;;;;;;;;;;;;0.78;56.25;92875.13;2053866;69;20051;-81
2023/04/04 04:08:02;;;;;;;;;;;;;;;0.79;55.82;92878.66;2067638;69;20058;-80
2023/04/04 04:10:28;;;;;;;;;;;;;;;0.77;55.50;92873.63;2055311;70;20054;-79
2023/04/04 04:12:53;;;;;;;;;;;;;;;0.76;56.23;92875.66;2054429;70;20047;-80
2023/04/04 04:15:20;;;;;;;;;;;;;;;0.76;55.84;92881.19;2067822;69;20059;-78
2023/04/04 04:17:46;;;;;;;;;;;;;;;0.74;56.03;92881.00;2055318;69;20165;-77
2023/04/04 04:20:13;;;;;;;;;;;;;;;0.72;56.17;92883.56;2055909;69;20146;-79
2023/04/04 04:22:46;;;;;;;;;;;;;;;0.75;56.22;92884.53;2068241;69;20089;-78
2023/04/04 04:25:13;;;;;;;;;;;;;;;0.48;56.59;92890.22;2067664;69;20057;-81
2023/04/04 04:27:42;;;;;;;;;;;;;;;0.66;56.47;92882.25;2068199;69;20141;-80
2023/04/04 04:30:14;;;;;;;;;;;;;;;0.75;56.53;92890.81;2067884;69;20055;-80
2023/04/04 04:32:43;;;;;;;;;;;;;;;0.68;56.82;92888.72;2066964;69;20043;-77
2023/04/04 04:35:10;;;;;;;;;;;;;;;0.66;57.19;92887.78;2066367;69;20089;-81
2023/04/04 04:37:37;;;;;;;;;;;;;;;0.63;57.26;92889.59;2066571;69;20120;-79
2023/04/04 04:40:05;;;;;;;;;;;;;;;0.74;57.10;92902.44;2066992;69;20140;-81
2023/04/04 04:42:36;;;;;;;;;;;;;;;0.72;57.24;92894.66;2054029;69;20543;-78
2023/04/04 04:45:02;;;;;;;;;;;;;;;0.70;57.26;92890.97;2066714;69;20104;-80
2023/04/04 04:47:34;;;;;;;;;;;;;;;0.76;56.74;92895.06;2054668;69;20051;-76
2023/04/04 04:50:06;;;;;;;;;;;;;;;0.70;57.14;92902.03;2055386;70;20051;-81
2023/04/04 04:52:38;;;;;;;;;;;;;;;0.72;57.65;92908.50;2056497;69;20055;-79
2023/04/04 04:55:04;;;;;;;;;;;;;;;0.74;57.23;92905.97;2055805;70;20053;-80
2023/04/04 04:57:33;;;;;;;;;;;;;;;0.79;57.04;92906.34;2068524;69;20097;-80
2023/04/04 05:00:03;;;;;;;;;;;;;;;0.87;57.26;92907.13;2068497;69;20058;-80
2023/04/04 05:02:35;;;;;;;;;;;;;;;0.86;57.32;92900.84;2053451;70;20160;-79
2023/04/04 05:05:01;;;;;;;;;;;;;;;0.85;56.94;92904.19;2066356;69;20089;-79
2023/04/04 05:07:27;;;;;;;;;;;;;;;0.72;57.81;92910.53;2065948;69;20066;-74
2023/04/04 05:09:53;;;;;;;;;;;;;;;0.32;57.44;92915.53;2065689;69;20047;-76
2023/04/04 05:12:21;;;;;;;;;;;;;;;0.19;57.68;92917.09;2065676;69;20505;-81
2023/04/04 05:14:49;;;;;;;;;;;;;;;0.59;56.01;92918.91;2065581;69;20397;-76
2023/04/04 05:17:15;;;;;;;;;;;;;;;0.48;56.19;92926.22;2065645;69;20078;-82
2023/04/04 05:19:41;;;;;;;;;;;;;;;0.24;56.33;92924.53;2065589;69;20160;-78
2023/04/04 05:22:10;;;;;;;;;;;;;;;0.14;57.22;92917.22;2065585;69;20055;-75
2023/04/04 05:24:44;;;;;;;;;;;;;;;0.52;55.73;92928.66;2065535;69;20486;-78
2023/04/04 05:27:13;;;;;;;;;;;;;;;0.55;55.75;92927.59;2065443;69;20232;-81
2023/04/04 05:29:46;;;;;;;;;;;;;;;0.74;55.12;92925.34;2065313;69;20539;-82
2023/04/04 05:32:13;;;;;;;;;;;;;;;0.55;54.58;92922.06;2065477;69;20187;-82
2023/04/04 05:34:41;;;;;;;;;;;;;;;0.73;54.81;92929.41;2065473;69;20158;-81
2023/04/04 05:37:11;;;;;;;;;;;;;;;0.82;54.91;92921.88;2065573;69;20181;-81
2023/04/04 05:39:38;;;;;;;;;;;;;;;-0.02;56.71;92925.34;2065587;69;20136;-81
2023/04/04 05:42:07;;;;;;;;;;;;;;;0.51;55.47;92924.41;2065660;69;20054;-77
2023/04/04 05:44:37;;;;;;;;;;;;;;;0.32;55.42;92934.91;2066812;69;20061;-74
2023/04/04 05:47:04;;;;;;;;;;;;;;;0.62;54.98;92935.22;2067461;69;20082;-81
2023/04/04 05:49:29;;;;;;;;;;;;;;;0.66;54.65;92930.09;2065978;69;20093;-81
2023/04/04 05:51:57;;;;;;;;;;;;;;;0.34;55.09;92935.88;2046627;69;20078;-77
2023/04/04 05:54:24;;;;;;;;;;;;;;;0.54;55.40;92933.66;2065431;69;20043;-79
2023/04/04 05:56:50;;;;;;;;;;;;;;;0.63;55.00;92939.47;2062994;69;20505;-80
2023/04/04 05:59:33;;;;;;;;;;;;;;;0.25;55.74;92939.84;2052801;70;20058;-80
2023/04/04 06:02:02;;;;;;;;;;;;;;;0.70;54.42;92952.66;2065265;69;20047;-80
2023/04/04 06:04:29;;;;;;;;;;;;;;;0.81;54.58;92950.91;2065290;69;20577;-76
2023/04/04 06:06:57;;;;;;;;;;;;;;;0.88;54.52;92950.22;2052438;70;20458;-80
2023/04/04 06:09:22;;;;;;;;;;;;;;;0.94;54.42;92948.03;2065439;69;20051;-79
2023/04/04 06:11:48;;;;;;;;;;;;;;;1.06;54.32;92949.25;2052292;70;20144;-80
2023/04/04 06:14:14;;;;;;;;;;;;;;;0.97;54.29;92944.94;2065125;69;20059;-77
2023/04/04 06:16:40;;;;;;;;;;;;;;;0.99;54.32;92949.94;2065279;69;20042;-77
2023/04/04 06:19:05;;;;;;;;;;;;;;;0.83;54.04;92951.13;2052508;69;20054;-79
2023/04/04 06:21:31;;;;;;;;;;;;;;;0.82;54.78;92949.59;2046015;70;20051;-74
2023/04/04 06:23:57;;;;;;;;;;;;;;;0.96;54.16;92957.31;2065169;69;20458;-75
2023/04/04 06:26:22;;;;;;;;;;;;;;;1.18;53.62;92949.69;2065221;69;20474;-75
2023/04/04 06:28:49;;;;;;;;;;;;;;;1.35;53.72;92949.25;2065311;69;20174;-77
2023/04/04 06:31:18;;;;;;;;;;;;;;;1.46;52.99;92943.41;2065096;69;20085;-76
2023/04/04 06:33:45;;;;;;;;;;;;;;;1.63;52.62;92956.81;2064864;69;20113;-72
2023/04/04 06:36:12;;;;;;;;;;;;;;;1.35;52.90;92952.03;2065282;69;20051;-71
2023/04/04 06:38:38;;;;;;;;;;;;;;;1.06;52.67;92943.72;2065289;69;20062;-75
2023/04/04 06:41:12;;;;;;;;;;;;;;;1.17;52.69;92946.19;2062624;69;20116;-78
2023/04/04 06:43:38;;;;;;;;;;;;;;;1.09;53.19;92939.84;2065105;69;20054;-77
2023/04/04 06:46:03;;;;;;;;;;;;;;;1.39;52.29;92946.88;2052326;70;20055;-77
2023/04/04 06:48:29;;;;;;;;;;;;;;;1.77;52.08;92939.50;2051740;70;20098;-77
2023/04/04 06:50:55;;;;;;;;;;;;;;;1.77;51.69;92947.84;2065156;69;20055;-77
2023/04/04 06:53:22;;;;;;;;;;;;;;;1.85;50.98;92949.91;2065564;69;20091;-77
2023/04/04 06:55:48;;;;;;;;;;;;;;;1.96;51.54;92939.22;2065813;69;20144;-76
2023/04/04 06:58:14;;;;;;;;;;;;;;;2.22;51.33;92948.56;2065350;69;20051;-79
2023/04/04 07:00:40;;;;;;;;;;;;;;;2.05;50.54;92946.28;2052220;70;20437;-76
2023/04/04 07:03:05;;;;;;;;;;;;;;;1.67;49.98;92944.09;2052218;70;20051;-77
2023/04/04 07:05:31;;;;;;;;;;;;;;;2.06;50.28;92936.66;2052356;70;20047;-77
2023/04/04 07:07:56;;;;;;;;;;;;;;;2.32;49.98;92943.97;2052294;70;20042;-78
2023/04/04 07:10:23;;;;;;;;;;;;;;;2.25;49.88;92934.34;2052323;70;20059;-79
2023/04/04 07:12:49;;;;;;;;;;;;;;;2.32;50.01;92943.22;2052095;69;20436;-79
2023/04/04 07:15:15;;;;;;;;;;;;;;;2.48;49.45;92939.22;2052177;70;20051;-79
2023/04/04 07:17:40;;;;;;;;;;;;;;;2.58;49.07;92940.16;2065002;69;20120;-75
2023/04/04 07:20:06;;;;;;;;;;;;;;;2.72;49.37;92938.69;2052166;70;20058;-77
2023/04/04 07:22:36;;;;;;;;;;;;;;;2.73;49.35;92939.44;2052216;70;20097;-75
2023/04/04 07:25:02;;;;;;;;;;;;;;;2.55;48.32;92938.47;2052272;70;20054;-77
2023/04/04 07:27:27;;;;;;;;;;;;;;;2.59;48.23;92940.88;2052193;70;20080;-74
2023/04/04 07:29:53;;;;;;;;;;;;;;;2.76;48.27;92933.50;2052251;70;20047;-75
2023/04/04 07:32:18;;;;;;;;;;;;;;;2.75;48.38;92936.84;2052427;70;20052;-75
2023/04/04 07:34:44;;;;;;;;;;;;;;;2.44;48.99;92936.03;2052680;70;20043;-76
2023/04/04 07:37:09;;;;;;;;;;;;;;;2.39;48.93;92937.69;2052379;70;20145;-71
2023/04/04 07:39:35;;;;;;;;;;;;;;;3.04;51.75;92931.84;2051982;69;20055;-78
2023/04/04 07:42:01;;;;;;;;;;;;;;;2.89;48.96;92932.59;2052260;70;20054;-77
2023/04/04 07:44:26;;;;;;;;;;;;;;;3.38;48.79;92925.88;2052245;69;20444;-76
2023/04/04 07:46:52;;;;;;;;;;;;;;;3.71;48.62;92926.75;2052094;70;20050;-79
2023/04/04 07:49:17;;;;;;;;;;;;;;;3.90;47.39;92926.31;2052106;70;20074;-78
2023/04/04 07:51:43;;;;;;;;;;;;;;;4.33;46.91;92927.25;2052129;69;20054;-78
2023/04/04 07:54:10;;;;;;;;;;;;;;;4.61;45.05;92923.38;2052269;70;20246;-78
2023/04/04 07:56:35;;;;;;;;;;;;;;;4.78;46.92;92919.94;2051996;70;20567;-76
2023/04/04 07:59:01;;;;;;;;;;;;;;;5.29;43.28;92922.16;2052358;70;20144;-75
2023/04/04 08:01:26;;;;;;;;;;;;;;;5.46;42.05;92924.25;2065040;69;20062;-76
2023/04/04 08:03:52;;;;;;;;;;;;;;;5.69;41.79;92926.81;2052388;70;20149;-75
2023/04/04 08:06:18;;;;;;;;;;;;;;;5.69;42.06;92918.44;2051848;69;20074;-73
2023/04/04 08:08:45;;;;;;;;;;;;;;;5.62;41.62;92924.81;2052131;70;20061;-78
2023/04/04 08:11:12;;;;;;;;;;;;;;;5.72;41.27;92914.47;2052130;70;20112;-77
2023/04/04 08:13:38;;;;;;;;;;;;;;;4.65;39.94;92915.38;2052350;70;20085;-78
2023/04/04 08:16:03;;;;;;;;;;;;;;;4.55;40.26;92920.09;2052239;70;20063;-78
2023/04/04 08:18:29;;;;;;;;;;;;;;;4.84;39.72;92915.59;2052106;69;20530;-78
2023/04/04 08:20:54;;;;;;;;;;;;;;;5.17;40.68;92906.44;2052810;70;20498;-77
2023/04/04 08:23:20;;;;;;;;;;;;;;;4.39;39.58;92907.53;2065475;69;20046;-78
2023/04/04 08:25:45;;;;;;;;;;;;;;;4.53;39.70;92905.94;2052483;70;20359;-77
2023/04/04 08:28:11;;;;;;;;;;;;;;;4.40;40.80;92911.78;2052598;70;20555;-78
2023/04/04 08:30:36;;;;;;;;;;;;;;;3.90;40.89;92900.53;2052594;70;20051;-79
2023/04/04 08:33:02;;;;;;;;;;;;;;;4.72;39.09;92897.09;2052625;70;20133;-78
2023/04/04 08:35:27;;;;;;;;;;;;;;;5.12;39.47;92899.78;2065630;69;20478;-77
2023/04/04 08:37:53;;;;;;;;;;;;;;;4.94;40.19;92887.06;2052695;69;20116;-76
2023/04/04 08:40:18;;;;;;;;;;;;;;;4.47;40.25;92888.72;2052831;70;20489;-78
2023/04/04 08:42:44;;;;;;;;;;;;;;;4.25;39.96;92896.63;2052659;70;20062;-78
2023/04/04 08:45:11;;;;;;;;;;;;;;;4.73;39.75;92888.16;2052721;70;20046;-78
2023/04/04 08:47:37;;;;;;;;;;;;;;;4.37;40.42;92888.59;2065431;69;20116;-79
2023/04/04 08:50:04;;;;;;;;;;;;;;;5.39;39.21;92894.31;2052608;69;20085;-74
2023/04/04 08:52:30;;;;;;;;;;;;;;;5.64;38.29;92902.66;2052773;70;20086;-74
2023/04/04 08:54:57;;;;;;;;;;;;;;;5.30;38.16;92894.97;2052646;70;20422;-72
2023/04/04 08:57:22;;;;;;;;;;;;;;;3.85;39.70;92893.84;2052905;70;20098;-77
2023/04/04 08:59:48;;;;;;;;;;;;;;;4.56;37.96;92896.47;2052994;70;20106;-72
2023/04/04 09:02:16;;;;;;;;;;;;;;;4.58;37.79;92893.84;2052547;70;20113;-71
2023/04/04 09:04:42;;;;;;;;;;;;;;;5.25;38.04;92893.88;2065494;69;20394;-71
2023/04/04 09:07:08;;;;;;;;;;;;;;;5.22;39.21;92889.47;2052100;70;20065;-76
2023/04/04 09:09:34;;;;;;;;;;;;;;;5.41;37.28;92896.56;2052564;70;20053;-76
2023/04/04 09:12:00;;;;;;;;;;;;;;;6.36;38.17;92889.53;2049042;70;20075;-76
2023/04/04 09:14:26;;;;;;;;;;;;;;;6.43;37.58;92888.72;2052905;70;20050;-79
2023/04/04 09:16:52;;;;;;;;;;;;;;;7.55;38.91;92871.28;2052585;69;20426;-76
2023/04/04 09:19:17;;;;;;;;;;;;;;;7.17;35.17;92878.28;2065818;69;20050;-78
2023/04/04 09:21:46;;;;;;;;;;;;;;;7.23;34.27;92867.53;2052742;70;20560;-73
2023/04/04 09:24:12;;;;;;;;;;;;;;;6.55;36.25;92878.47;2052823;70;20050;-73
2023/04/04 09:26:51;;;;;;;;;;;;;;;8.15;36.49;92869.44;2049924;70;20090;-71
2023/04/04 09:29:20;;;;;;;;;;;;;;;8.63;36.86;92876.31;2052443;70;20483;-71
2023/04/04 09:31:49;;;;;;;;;;;;;;;8.74;34.96;92870.06;2052404;69;20139;-72
2023/04/04 09:34:17;;;;;;;;;;;;;;;10.03;34.81;92867.47;2052697;70;20054;-72
2023/04/04 09:36:43;;;;;;;;;;;;;;;10.17;33.00;92865.56;2052652;70;20051;-72
2023/04/04 09:39:09;;;;;;;;;;;;;;;9.97;31.77;92862.19;2052413;70;20431;-72
2023/04/04 09:41:36;;;;;;;;;;;;;;;10.98;31.39;92864.38;2052516;70;20142;-74
2023/04/04 09:44:02;;;;;;;;;;;;;;;10.69;32.07;92864.69;2052514;70;20119;-74
2023/04/04 09:46:28;;;;;;;;;;;;;;;8.55;33.00;92848.41;2052523;70;20078;-73
2023/04/04 09:48:54;;;;;;;;;;;;;;;10.47;31.45;92864.00;2052399;70;20050;-76
2023/04/04 09:51:20;;;;;;;;;;;;;;;10.13;31.78;92852.00;2052415;70;20112;-78
2023/04/04 09:53:49;;;;;;;;;;;;;;;12.21;28.93;92841.34;2052382;69;20075;-77
2023/04/04 09:56:15;;;;;;;;;;;;;;;11.33;30.05;92847.50;2052457;70;20078;-77
2023/04/04 09:58:45;;;;;;;;;;;;;;;11.61;31.30;92842.81;2052421;70;20097;-73
2023/04/04 10:01:12;;;;;;;;;;;;;;;12.01;28.44;92837.38;2052023;70;20502;-72
2023/04/04 10:03:38;;;;;;;;;;;;;;;12.51;28.77;92833.09;2065067;69;20478;-73
2023/04/04 10:06:04;;;;;;;;;;;;;;;13.34;28.64;92836.94;2052331;70;20625;-72
2023/04/04 10:08:30;;;;;;;;;;;;;;;14.53;27.89;92829.47;2052305;69;20129;-72
2023/04/04 10:10:57;;;;;;;;;;;;;;;14.44;26.22;92829.03;2052224;70;20387;-72
2023/04/04 10:13:31;;;;;;;;;;;;;;;13.97;25.88;92817.50;2052177;70;20082;-77
2023/04/04 10:15:57;;;;;;;;;;;;;;;13.98;25.66;92822.56;2052303;70;20074;-77
2023/04/04 10:18:27;;;;;;;;;;;;;;;13.59;25.80;92817.03;2052307;70;20043;-76
2023/04/04 10:20:56;;;;;;;;;;;;;;;14.41;23.00;92816.16;2052223;70;20162;-76
2023/04/04 10:23:23;;;;;;;;;;;;;;;14.82;22.21;92815.28;2052251;70;20055;-73
2023/04/04 10:25:49;;;;;;;;;;;;;;;15.78;22.93;92813.19;2052418;70;20058;-74
2023/04/04 10:28:19;;;;;;;;;;;;;;;14.67;22.36;92796.88;2052340;70;20051;-77
2023/04/04 10:31:03;;;;;;;;;;;;;;;15.38;22.50;92798.66;2052476;70;20062;-76
2023/04/04 10:33:38;;;;;;;;;;;;;;;16.50;19.95;92804.19;2051973;70;20166;-77
2023/04/04 10:36:06;;;;;;;;;;;;;;;15.86;20.08;92796.53;2052165;70;20143;-76
2023/04/04 10:38:35;;;;;;;;;;;;;;;18.14;19.39;92787.50;2052090;70;20367;-77
2023/04/04 10:41:01;;;;;;;;;;;;;;;18.24;18.62;92788.59;2052101;70;20067;-73
2023/04/04 10:43:31;;;;;;;;;;;;;;;15.98;19.48;92791.34;2052451;69;20443;-73
2023/04/04 10:45:59;;;;;;;;;;;;;;;14.55;19.07;92775.75;2052627;70;20418;-73
2023/04/04 10:48:25;;;;;;;;;;;;;;;14.98;19.29;92790.53;2052185;70;20070;-73
2023/04/04 10:50:52;;;;;;;;;;;;;;;17.69;17.56;92783.81;2065246;69;20093;-73
2023/04/04 10:53:18;;;;;;;;;;;;;;;18.28;18.59;92771.66;2052199;70;20125;-73
2023/04/04 10:55:45;;;;;;;;;;;;;;;18.62;17.54;92770.59;2051896;69;20062;-73
2023/04/04 10:58:12;;;;;;;;;;;;;;;17.85;17.99;92760.91;2052282;70;20078;-74
2023/04/04 11:00:54;;;;;;;;;;;;;;;15.70;18.49;92751.88;2052263;70;20482;-74
2023/04/04 11:03:19;;;;;;;;;;;;;;;21.68;14.92;92758.69;2052043;70;20150;-76
2023/04/04 11:05:50;;;;;;;;;;;;;;;24.03;15.78;92751.72;2052219;70;20137;-76
2023/04/04 11:08:23;;;;;;;;;;;;;;;18.43;16.42;92750.03;2052333;70;20120;-75
2023/04/04 11:10:50;;;;;;;;;;;;;;;19.34;14.58;92747.84;2052240;70;20054;-74
2023/04/04 11:13:21;;;;;;;;;;;;;;;19.55;16.92;92753.44;2052393;69;20100;-73
2023/04/04 11:15:57;;;;;;;;;;;;;;;18.44;16.76;92748.63;2052429;70;20050;-73
2023/04/04 11:18:39;;;;;;;;;;;;;;;24.91;13.11;92744.69;2052439;70;20482;-76
2023/04/04 11:21:15;;;;;;;;;;;;;;;24.06;13.61;92742.44;2052376;70;20089;-75
2023/04/04 11:23:50;;;;;;;;;;;;;;;22.83;13.51;92734.25;2051893;70;20228;-73
2023/04/04 11:26:29;;;;;;;;;;;;;;;25.62;13.38;92724.31;2052235;70;20055;-74
2023/04/04 11:29:08;;;;;;;;;;;;;;;23.62;13.25;92728.22;2052000;70;20147;-74
2023/04/04 11:31:38;;;;;;;;;;;;;;;25.15;13.25;92726.88;2052197;70;20066;-78
2023/04/04 11:34:07;;;;;;;;;;;;;;;28.57;11.94;92723.50;2052405;69;20051;-78
2023/04/04 11:36:39;;;;;;;;;;;;;;;26.16;11.54;92720.22;2052132;70;20100;-80
2023/04/04 11:39:10;;;;;;;;;;;;;;;28.77;10.39;92719.03;2052195;70;20051;-73
2023/04/04 11:41:51;;;;;;;;;;;;;;;25.50;12.96;92716.31;2065168;69;20116;-73
2023/04/04 11:44:16;;;;;;;;;;;;;;;27.61;11.39;92706.53;2052802;70;20054;-73
2023/04/04 11:46:42;;;;;;;;;;;;;;;25.78;9.63;92701.31;2056239;70;20057;-73
2023/04/04 11:49:09;;;;;;;;;;;;;;;25.28;12.03;92699.63;2055547;70;20078;-72
2023/04/04 11:51:35;;;;;;;;;;;;;;;24.65;11.13;92692.66;2056828;70;20130;-77
2023/04/04 11:54:01;;;;;;;;;;;;;;;20.22;12.52;92676.66;2056401;70;20081;-76
2023/04/04 11:56:26;;;;;;;;;;;;;;;23.38;12.60;92682.66;2054319;70;20169;-75
2023/04/04 11:58:51;;;;;;;;;;;;;;;21.10;12.68;92675.84;2053533;69;20131;-78
2023/04/04 12:01:18;;;;;;;;;;;;;;;20.48;12.50;92679.44;2053256;69;20042;-76
2023/04/04 12:03:44;;;;;;;;;;;;;;;20.28;12.99;92683.25;2052920;69;20055;-75
2023/04/04 12:06:15;;;;;;;;;;;;;;;20.55;11.77;92667.47;2052815;69;20085;-78
2023/04/04 12:08:41;;;;;;;;;;;;;;;24.20;12.68;92672.84;2052861;70;20062;-75
2023/04/04 12:11:10;;;;;;;;;;;;;;;21.77;12.39;92666.47;2052658;70;20059;-77
2023/04/04 12:13:44;;;;;;;;;;;;;;;23.08;11.46;92671.50;2052658;70;20082;-79
2023/04/04 12:16:10;;;;;;;;;;;;;;;25.47;10.78;92673.78;2052735;70;20058;-79
2023/04/04 12:18:36;;;;;;;;;;;;;;;19.34;11.49;92657.22;2052639;70;20043;-79
2023/04/04 12:21:02;;;;;;;;;;;;;;;19.10;13.31;92662.97;2052621;69;20119;-78
2023/04/04 12:23:32;;;;;;;;;;;;;;;26.18;10.93;92671.19;2052652;69;20069;-75
2023/04/04 12:25:58;;;;;;;;;;;;;;;18.70;12.66;92671.81;2052732;70;20137;-79
2023/04/04 12:28:24;;;;;;;;;;;;;;;21.40;12.32;92670.78;2052725;70;20149;-81
2023/04/04 12:30:50;;;;;;;;;;;;;;;23.02;11.34;92659.94;2052828;70;20146;-77
2023/04/04 12:33:16;;;;;;;;;;;;;;;23.34;12.13;92657.50;2052343;70;20081;-75
2023/04/04 12:35:49;;;;;;;;;;;;;;;22.88;12.00;92669.03;2052484;70;20196;-77
2023/04/04 12:38:15;;;;;;;;;;;;;;;25.57;10.73;92651.50;2052606;70;20059;-74
2023/04/04 12:40:41;;;;;;;;;;;;;;;23.00;11.64;92634.81;2052710;69;20062;-77
2023/04/04 12:43:07;;;;;;;;;;;;;;;22.07;11.99;92646.22;2052624;69;20047;-76
2023/04/04 12:45:36;;;;;;;;;;;;;;;20.90;12.16;92642.53;2052435;70;20047;-75
2023/04/04 12:48:07;;;;;;;;;;;;;;;27.83;11.79;92647.91;2052511;70;20055;-77
2023/04/04 12:50:47;;;;;;;;;;;;;;;25.80;11.54;92649.47;2052658;69;20499;-80
2023/04/04 12:53:12;;;;;;;;;;;;;;;25.48;11.41;92646.44;2052488;69;20051;-75
2023/04/04 12:55:38;;;;;;;;;;;;;;;26.57;11.43;92639.47;2052424;70;20071;-74
2023/04/04 12:58:03;;;;;;;;;;;;;;;24.37;11.18;92641.34;2052508;69;20051;-78